createdAt,value
2022-11-23T00:01:19.086Z,20.50
2022-11-23T00:03:47.455Z,22.10
2022-11-23T00:06:14.565Z,41.90
2022-11-23T00:08:41.506Z,78.40
2022-11-23T00:11:08.563Z,95.10
2022-11-23T00:13:35.427Z,94.90
2022-11-23T00:16:06.075Z,76.20
2022-11-23T00:18:32.694Z,99.90
2022-11-23T00:20:59.267Z,99.90
2022-11-23T00:23:25.971Z,95.50
2022-11-23T00:25:52.609Z,99.90
2022-11-23T00:28:19.188Z,99.90
2022-11-23T00:30:50.175Z,99.90
2022-11-23T00:33:17.963Z,99.90
2022-11-23T00:35:45.054Z,99.90
2022-11-23T00:38:12.138Z,99.90
2022-11-23T00:40:38.911Z,99.90
2022-11-23T00:43:05.622Z,99.90
2022-11-23T00:45:32.923Z,99.90
2022-11-23T00:47:59.544Z,99.90
2022-11-23T00:50:26.159Z,99.90
2022-11-23T00:52:52.779Z,99.90
2022-11-23T00:55:19.687Z,99.90
2022-11-23T00:57:46.252Z,99.90
2022-11-23T01:00:13.191Z,99.90
2022-11-23T01:02:40.382Z,99.90
2022-11-23T01:05:07.210Z,99.90
2022-11-23T01:07:33.914Z,99.90
2022-11-23T01:10:00.584Z,99.90
2022-11-23T01:12:29.066Z,99.90
2022-11-23T01:14:55.747Z,99.90
2022-11-23T01:17:22.442Z,99.90
2022-11-23T01:19:49.025Z,99.90
2022-11-23T01:22:15.794Z,99.90
2022-11-23T01:24:42.412Z,99.90
2022-11-23T01:27:09.275Z,99.90
2022-11-23T01:29:35.859Z,99.90
2022-11-23T01:32:02.664Z,99.90
2022-11-23T01:34:29.328Z,99.90
2022-11-23T01:36:58.899Z,99.90
2022-11-23T01:39:27.803Z,99.90
2022-11-23T01:41:54.434Z,99.90
2022-11-23T01:44:24.291Z,99.90
2022-11-23T01:46:54.157Z,99.90
2022-11-23T01:49:22.259Z,99.90
2022-11-23T01:51:52.030Z,99.90
2022-11-23T01:54:27.998Z,99.90
2022-11-23T01:57:02.051Z,99.90
2022-11-23T01:59:31.674Z,99.90
2022-11-23T02:01:58.535Z,99.90
2022-11-23T02:04:31.074Z,99.90
2022-11-23T02:06:59.540Z,99.90
2022-11-23T02:09:29.213Z,99.90
2022-11-23T02:11:57.718Z,99.90
2022-11-23T02:14:24.353Z,99.90
2022-11-23T02:16:55.251Z,99.90
2022-11-23T02:19:29.689Z,99.90
2022-11-23T02:21:56.987Z,99.90
2022-11-23T02:24:35.425Z,99.90
2022-11-23T02:27:03.867Z,99.90
2022-11-23T02:29:30.964Z,99.90
2022-11-23T02:32:00.719Z,99.90
2022-11-23T02:34:27.411Z,99.90
2022-11-23T02:36:57.291Z,99.90
2022-11-23T02:39:40.413Z,99.90
2022-11-23T02:42:07.164Z,99.90
2022-11-23T02:44:51.259Z,99.90
2022-11-23T02:47:17.917Z,99.90
2022-11-23T02:49:49.307Z,99.90
2022-11-23T02:52:16.956Z,99.90
2022-11-23T02:54:43.602Z,99.90
2022-11-23T02:57:10.550Z,99.90
2022-11-23T02:59:38.942Z,99.90
2022-11-23T03:02:06.739Z,1.00
2022-11-23T03:04:33.597Z,1.00
2022-11-23T03:07:00.451Z,99.90
2022-11-23T03:09:28.189Z,99.90
2022-11-23T03:11:55.170Z,99.90
2022-11-23T03:14:24.209Z,99.90
2022-11-23T03:16:58.119Z,99.90
2022-11-23T03:19:24.875Z,99.90
2022-11-23T03:21:52.981Z,99.90
2022-11-23T03:24:19.866Z,99.90
2022-11-23T03:26:47.543Z,99.90
2022-11-23T03:29:18.877Z,99.90
2022-11-23T03:31:47.434Z,99.90
2022-11-23T03:34:15.982Z,99.90
2022-11-23T03:36:44.300Z,99.90
2022-11-23T03:39:11.194Z,99.90
2022-11-23T03:42:03.170Z,1.00
2022-11-23T03:44:33.307Z,99.10
2022-11-23T03:46:59.900Z,99.90
2022-11-23T03:49:27.826Z,99.90
2022-11-23T03:51:54.546Z,99.90
2022-11-23T03:54:21.131Z,99.90
2022-11-23T03:56:48.273Z,99.90
2022-11-23T03:59:14.909Z,99.90
2022-11-23T04:01:42.035Z,99.90
2022-11-23T04:04:15.444Z,99.90
2022-11-23T04:06:59.683Z,99.90
2022-11-23T04:09:31.485Z,99.90
2022-11-23T04:12:04.009Z,99.90
2022-11-23T04:14:31.038Z,99.90
2022-11-23T04:16:59.507Z,99.90
2022-11-23T04:19:26.107Z,99.90
2022-11-23T04:21:52.758Z,99.90
2022-11-23T04:24:20.587Z,99.90
2022-11-23T04:26:47.349Z,99.90
2022-11-23T04:29:14.859Z,99.90
2022-11-23T04:31:46.367Z,99.90
2022-11-23T04:34:16.429Z,99.90
2022-11-23T04:36:43.293Z,99.90
2022-11-23T04:39:12.509Z,99.90
2022-11-23T04:41:55.566Z,99.90
2022-11-23T04:44:22.654Z,99.90
2022-11-23T04:46:53.652Z,99.90
2022-11-23T04:49:21.364Z,99.90
2022-11-23T04:51:48.072Z,99.90
2022-11-23T04:54:17.764Z,99.90
2022-11-23T04:56:50.100Z,99.90
2022-11-23T04:59:17.487Z,99.90
2022-11-23T05:01:45.342Z,99.90
2022-11-23T05:04:35.195Z,99.90
2022-11-23T05:07:02.650Z,99.90
2022-11-23T05:09:30.836Z,99.90
2022-11-23T05:12:03.973Z,99.90
2022-11-23T05:14:31.719Z,99.90
2022-11-23T05:16:58.459Z,99.90
2022-11-23T05:19:26.233Z,99.90
2022-11-23T05:21:53.611Z,99.90
2022-11-23T05:24:20.902Z,99.90
2022-11-23T05:27:00.015Z,99.90
2022-11-23T05:29:27.866Z,99.90
2022-11-23T05:31:54.675Z,99.90
2022-11-23T05:34:21.665Z,99.90
2022-11-23T05:36:49.200Z,99.90
2022-11-23T05:39:16.805Z,99.90
2022-11-23T05:41:44.388Z,99.90
2022-11-23T05:44:49.676Z,99.90
2022-11-23T05:47:21.898Z,99.90
2022-11-23T05:49:49.477Z,99.90
2022-11-23T05:52:19.139Z,99.90
2022-11-23T05:54:47.178Z,1.00
2022-11-23T05:57:15.804Z,1.00
2022-11-23T05:59:44.476Z,1.00
2022-11-23T06:02:18.729Z,1.00
2022-11-23T06:04:47.737Z,1.00
2022-11-23T06:07:18.310Z,1.00
2022-11-23T06:10:00.672Z,1.00
2022-11-23T06:12:28.778Z,1.00
2022-11-23T06:14:55.663Z,1.00
2022-11-23T06:17:24.927Z,1.00
2022-11-23T06:19:54.406Z,1.00
2022-11-23T06:22:20.979Z,1.00
2022-11-23T06:24:55.675Z,1.00
2022-11-23T06:27:51.278Z,1.00
2022-11-23T06:30:23.878Z,1.00
2022-11-23T06:32:50.570Z,1.00
2022-11-23T06:35:18.962Z,1.00
2022-11-23T06:37:48.890Z,1.00
2022-11-23T06:40:16.971Z,1.00
2022-11-23T06:42:44.044Z,1.00
2022-11-23T06:45:19.343Z,1.00
2022-11-23T06:47:53.814Z,99.90
2022-11-23T06:50:20.576Z,52.20
2022-11-23T06:52:48.677Z,1.00
2022-11-23T06:55:17.172Z,3.30
2022-11-23T06:57:53.871Z,14.40
2022-11-23T07:00:20.694Z,1.00
2022-11-23T07:02:55.218Z,99.90
2022-11-23T07:05:24.662Z,99.90
2022-11-23T07:07:51.395Z,99.90
2022-11-23T07:10:25.673Z,99.90
2022-11-23T07:13:03.722Z,99.90
2022-11-23T07:15:30.488Z,99.90
2022-11-23T07:17:57.479Z,99.90
2022-11-23T07:20:25.245Z,99.90
2022-11-23T07:23:10.335Z,99.90
2022-11-23T07:25:39.410Z,99.90
2022-11-23T07:28:07.876Z,99.90
2022-11-23T07:30:36.073Z,99.90
2022-11-23T07:33:06.615Z,99.90
2022-11-23T07:35:36.013Z,99.90
2022-11-23T07:38:03.533Z,99.90
2022-11-23T07:40:30.380Z,99.90
2022-11-23T07:43:02.661Z,99.90
2022-11-23T07:45:30.064Z,99.90
2022-11-23T07:48:03.253Z,99.90
2022-11-23T07:50:30.146Z,99.90
2022-11-23T07:52:57.414Z,99.90
2022-11-23T07:55:24.560Z,99.90
2022-11-23T07:57:55.159Z,99.90
2022-11-23T08:00:22.969Z,99.90
2022-11-23T08:03:19.406Z,99.90
2022-11-23T08:05:36.479Z,99.90
2022-11-23T08:08:03.467Z,1.00
2022-11-23T08:10:31.986Z,1.00
2022-11-23T08:12:59.920Z,16.40
2022-11-23T08:15:28.092Z,44.60
2022-11-23T08:17:59.117Z,1.00
2022-11-23T08:20:27.332Z,1.00
2022-11-23T08:22:57.190Z,1.00
2022-11-23T08:25:25.310Z,46.90
2022-11-23T08:27:59.951Z,1.00
2022-11-23T08:30:28.244Z,99.90
2022-11-23T08:32:54.856Z,1.00
2022-11-23T08:35:21.774Z,11.00
2022-11-23T08:37:48.516Z,1.00
2022-11-23T08:40:16.655Z,37.30
2022-11-23T08:42:47.368Z,99.90
2022-11-23T08:45:14.036Z,99.90
2022-11-23T08:47:40.637Z,99.90
2022-11-23T08:50:07.676Z,99.90
2022-11-23T08:52:34.295Z,99.90
2022-11-23T08:55:01.347Z,99.90
2022-11-23T08:57:28.796Z,99.90
2022-11-23T08:59:55.439Z,99.90
2022-11-23T09:02:22.133Z,99.90
2022-11-23T09:04:49.008Z,99.90
2022-11-23T09:07:15.729Z,99.90
2022-11-23T09:09:42.369Z,99.90
2022-11-23T09:12:09.103Z,99.90
2022-11-23T09:14:35.886Z,99.90
2022-11-23T09:17:03.240Z,99.90
2022-11-23T09:19:29.952Z,99.90
2022-11-23T09:21:57.893Z,99.90
2022-11-23T09:24:25.751Z,99.90
2022-11-23T09:26:52.416Z,99.90
2022-11-23T09:29:19.017Z,99.90
2022-11-23T09:31:45.662Z,99.90
2022-11-23T09:34:15.078Z,99.90
2022-11-23T09:36:41.714Z,99.90
2022-11-23T09:39:08.484Z,99.90
2022-11-23T09:41:55.066Z,99.90
2022-11-23T09:44:25.581Z,99.90
2022-11-23T09:47:21.220Z,99.90
2022-11-23T09:50:03.112Z,99.90
2022-11-23T09:52:30.872Z,99.90
2022-11-23T09:55:03.162Z,99.90
2022-11-23T09:57:33.935Z,99.90
2022-11-23T10:00:05.603Z,99.90
2022-11-23T10:02:39.123Z,99.90
2022-11-23T10:05:07.242Z,99.90
2022-11-23T10:07:50.232Z,99.90
2022-11-23T10:10:36.567Z,99.90
2022-11-23T10:13:15.666Z,99.90
2022-11-23T10:16:22.121Z,99.90
2022-11-23T10:19:22.549Z,99.90
2022-11-23T10:22:03.823Z,99.90
2022-11-23T10:24:38.138Z,99.90
2022-11-23T10:27:13.975Z,99.90
2022-11-23T10:29:42.147Z,99.90
2022-11-23T10:32:35.405Z,99.90
2022-11-23T10:35:35.186Z,1.00
2022-11-23T10:38:18.369Z,99.90
2022-11-23T10:41:08.755Z,99.90
2022-11-23T10:43:45.139Z,99.90
2022-11-23T10:46:37.219Z,99.90
2022-11-23T10:49:19.347Z,99.90
2022-11-23T10:51:49.900Z,99.90
2022-11-23T10:54:28.215Z,99.90
2022-11-23T10:56:56.360Z,99.90
2022-11-23T10:59:37.959Z,99.90
2022-11-23T11:02:18.331Z,99.90
2022-11-23T11:04:46.857Z,99.90
2022-11-23T11:07:30.672Z,99.90
2022-11-23T11:10:00.036Z,99.90
2022-11-23T11:12:30.310Z,99.90
2022-11-23T11:15:10.940Z,99.90
2022-11-23T11:17:39.618Z,99.90
2022-11-23T11:20:45.661Z,99.90
2022-11-23T11:23:19.942Z,99.90
2022-11-23T11:25:48.406Z,99.90
2022-11-23T11:28:25.219Z,99.90
2022-11-23T11:31:13.202Z,99.90
2022-11-23T11:33:53.614Z,99.90
2022-11-23T11:36:21.875Z,99.90
2022-11-23T11:39:17.272Z,99.90
2022-11-23T11:41:42.495Z,99.90
2022-11-23T11:44:20.413Z,99.90
2022-11-23T11:46:53.967Z,99.90
2022-11-23T11:49:31.380Z,99.90
2022-11-23T11:52:07.065Z,99.90
2022-11-23T11:55:07.011Z,99.90
2022-11-23T11:57:44.092Z,99.90
2022-11-23T12:00:15.341Z,99.90
2022-11-23T12:02:52.793Z,99.90
2022-11-23T12:05:30.359Z,99.90
2022-11-23T12:08:30.614Z,99.90
2022-11-23T12:11:00.166Z,99.90
2022-11-23T12:13:33.511Z,99.90
2022-11-23T12:16:28.424Z,99.90
2022-11-23T12:19:07.021Z,99.90
2022-11-23T12:22:06.012Z,99.90
2022-11-23T12:24:38.439Z,99.90
2022-11-23T12:27:10.225Z,99.90
2022-11-23T12:30:25.770Z,99.90
2022-11-23T12:33:13.229Z,99.90
2022-11-23T12:35:58.869Z,99.90
2022-11-23T12:38:38.131Z,99.90
2022-11-23T12:41:37.363Z,99.90
2022-11-23T12:44:22.098Z,99.90
2022-11-23T12:46:57.718Z,99.90
2022-11-23T12:49:51.893Z,99.90
2022-11-23T12:52:34.541Z,99.90
2022-11-23T12:55:19.663Z,99.90
2022-11-23T12:57:58.613Z,99.90
2022-11-23T13:00:31.939Z,99.90
2022-11-23T13:02:58.563Z,99.90
2022-11-23T13:06:02.758Z,99.90
2022-11-23T13:09:00.686Z,99.90
2022-11-23T13:12:03.536Z,99.90
2022-11-23T13:14:50.368Z,99.90
2022-11-23T13:18:11.136Z,99.90
2022-11-23T13:21:02.790Z,99.90
2022-11-23T13:23:38.192Z,99.90
2022-11-23T13:26:16.962Z,99.90
2022-11-23T13:28:47.568Z,99.90
2022-11-23T13:31:23.761Z,99.90
2022-11-23T13:33:56.583Z,99.90
2022-11-23T13:36:49.333Z,99.90
2022-11-23T13:39:43.805Z,99.90
2022-11-23T13:42:11.146Z,99.90
2022-11-23T13:44:37.891Z,99.90
2022-11-23T13:47:17.827Z,99.90
2022-11-23T13:49:47.031Z,99.90
2022-11-23T13:52:22.801Z,99.90
2022-11-23T13:55:13.270Z,99.90
2022-11-23T13:57:45.185Z,99.90
2022-11-23T14:00:49.682Z,99.90
2022-11-23T14:03:51.437Z,99.90
2022-11-23T14:06:45.522Z,99.90
2022-11-23T14:09:51.117Z,99.90
2022-11-23T14:12:23.699Z,99.90
2022-11-23T14:15:00.684Z,99.90
2022-11-23T14:17:48.775Z,99.90
2022-11-23T14:20:36.489Z,99.90
2022-11-23T14:23:11.176Z,99.90
2022-11-23T14:25:50.685Z,99.90
2022-11-23T14:28:48.095Z,99.90
2022-11-23T14:31:41.248Z,99.90
2022-11-23T14:34:25.534Z,99.90
2022-11-23T14:37:10.886Z,99.90
2022-11-23T14:40:03.372Z,99.90
2022-11-23T14:42:31.837Z,99.90
2022-11-23T14:45:04.592Z,99.90
2022-11-23T14:47:32.359Z,99.90
2022-11-23T14:49:59.283Z,99.90
2022-11-23T14:52:32.240Z,99.90
2022-11-23T14:55:02.581Z,99.90
2022-11-23T14:57:40.861Z,99.90
2022-11-23T15:00:36.212Z,99.90
2022-11-23T15:03:48.885Z,99.90
2022-11-23T15:06:16.551Z,99.90
2022-11-23T15:09:05.578Z,99.90
2022-11-23T15:11:36.270Z,99.90
2022-11-23T15:14:02.896Z,99.90
2022-11-23T15:16:38.293Z,99.90
2022-11-23T15:19:28.339Z,99.90
2022-11-23T15:21:58.033Z,99.90
2022-11-23T15:24:26.753Z,99.90
2022-11-23T15:26:56.990Z,99.90
2022-11-23T15:29:34.079Z,99.90
2022-11-23T15:34:49.799Z,99.90
2022-11-23T15:37:17.513Z,99.90
2022-11-23T15:39:44.488Z,99.90
2022-11-23T15:42:16.862Z,99.90
2022-11-23T15:44:48.896Z,99.90
2022-11-23T15:47:27.144Z,99.90
2022-11-23T15:50:02.772Z,99.90
2022-11-23T15:52:35.556Z,99.90
2022-11-23T15:57:56.601Z,99.90
2022-11-23T16:00:25.657Z,99.90
2022-11-23T16:03:14.010Z,99.90
2022-11-23T16:04:12.686Z,99.90
2022-11-23T16:05:40.638Z,99.90
2022-11-23T16:08:24.472Z,99.90
2022-11-23T16:10:55.393Z,99.90
2022-11-23T16:13:37.050Z,99.90
2022-11-23T16:16:14.138Z,99.90
2022-11-23T16:18:46.701Z,99.90
2022-11-23T16:21:16.874Z,99.90
2022-11-23T16:23:55.931Z,99.90
2022-11-23T16:26:33.311Z,99.90
2022-11-23T16:29:01.249Z,99.90
2022-11-23T16:31:39.994Z,99.90
2022-11-23T16:34:15.611Z,99.90
2022-11-23T16:36:42.226Z,99.90
2022-11-23T16:39:08.791Z,99.90
2022-11-23T16:41:35.403Z,99.90
2022-11-23T16:44:02.022Z,99.90
2022-11-23T16:46:28.769Z,99.90
2022-11-23T16:48:57.315Z,99.90
2022-11-23T16:51:23.990Z,99.90
2022-11-23T16:56:38.144Z,99.90
2022-11-23T16:59:05.064Z,99.90
2022-11-23T17:01:32.620Z,99.90
2022-11-23T17:03:59.862Z,99.90
2022-11-23T17:06:26.647Z,99.90
2022-11-23T17:09:00.505Z,99.90
2022-11-23T17:11:32.995Z,99.90
2022-11-23T17:13:59.911Z,99.90
2022-11-23T17:16:26.969Z,99.90
2022-11-23T17:18:53.822Z,99.90
2022-11-23T17:21:20.487Z,99.90
2022-11-23T17:23:47.305Z,99.90
2022-11-23T17:26:36.151Z,99.90
2022-11-23T17:29:06.392Z,99.90
2022-11-23T17:31:33.384Z,99.90
2022-11-23T17:34:00.088Z,99.90
2022-11-23T17:36:26.845Z,99.90
2022-11-23T17:38:54.373Z,99.90
2022-11-23T17:41:21.005Z,99.90
2022-11-23T17:43:47.764Z,99.90
2022-11-23T17:46:18.791Z,99.90
2022-11-23T17:48:46.552Z,99.90
2022-11-23T17:51:13.655Z,99.90
2022-11-23T17:53:41.135Z,99.90
2022-11-23T17:56:17.915Z,99.90
2022-11-23T17:58:44.980Z,99.90
2022-11-23T18:01:14.008Z,99.90
2022-11-23T18:03:41.803Z,99.90
2022-11-23T18:06:20.377Z,99.90
2022-11-23T18:08:48.546Z,99.90
2022-11-23T18:11:15.550Z,99.90
2022-11-23T18:13:43.046Z,99.90
2022-11-23T18:16:13.116Z,99.90
2022-11-23T18:18:40.123Z,99.90
2022-11-23T18:21:07.203Z,99.90
2022-11-23T18:23:34.208Z,99.90
2022-11-23T18:26:12.609Z,99.90
2022-11-23T18:28:39.319Z,99.90
2022-11-23T18:31:06.371Z,99.90
2022-11-23T18:33:33.043Z,99.90
2022-11-23T18:36:05.139Z,99.90
2022-11-23T18:38:33.548Z,99.90
2022-11-23T18:41:00.464Z,99.90
2022-11-23T18:43:27.312Z,99.90
2022-11-23T18:45:54.067Z,99.90
2022-11-23T18:48:20.721Z,99.90
2022-11-23T18:50:47.391Z,99.90
2022-11-23T18:53:14.138Z,99.90
2022-11-23T18:55:40.881Z,99.90
2022-11-23T18:58:07.516Z,99.90
2022-11-23T19:00:34.181Z,99.90
2022-11-23T19:03:02.286Z,99.90
2022-11-23T19:05:35.334Z,99.90
2022-11-23T19:08:06.917Z,99.90
2022-11-23T19:10:38.247Z,99.90
2022-11-23T19:13:06.121Z,99.90
2022-11-23T19:15:33.481Z,99.90
2022-11-23T19:18:00.708Z,99.90
2022-11-23T19:20:29.076Z,99.90
2022-11-23T19:22:56.077Z,99.90
2022-11-23T19:25:23.018Z,99.90
2022-11-23T19:27:51.217Z,99.90
2022-11-23T19:30:18.186Z,99.90
2022-11-23T19:32:44.980Z,99.90
2022-11-23T19:35:11.600Z,99.90
2022-11-23T19:37:38.646Z,99.90
2022-11-23T19:40:05.886Z,99.90
2022-11-23T19:42:35.554Z,99.90
2022-11-23T19:45:02.867Z,99.90
2022-11-23T19:47:31.346Z,99.90
2022-11-23T19:49:58.970Z,99.90
2022-11-23T19:52:41.985Z,99.90
2022-11-23T19:55:14.964Z,99.90
2022-11-23T19:57:41.583Z,99.90
2022-11-23T20:00:09.380Z,99.90
2022-11-23T20:02:38.737Z,99.90
2022-11-23T20:05:06.594Z,99.90
2022-11-23T20:07:33.335Z,99.90
2022-11-23T20:09:59.977Z,99.90
2022-11-23T20:12:26.604Z,99.90
2022-11-23T20:14:53.226Z,99.90
2022-11-23T20:17:19.819Z,99.90
2022-11-23T20:19:46.378Z,99.90
2022-11-23T20:22:12.980Z,99.90
2022-11-23T20:24:39.586Z,99.90
2022-11-23T20:27:06.201Z,99.90
2022-11-23T20:29:33.048Z,99.90
2022-11-23T20:31:59.786Z,99.90
2022-11-23T20:34:26.633Z,99.90
2022-11-23T20:36:53.272Z,99.90
2022-11-23T20:39:19.891Z,99.90
2022-11-23T20:41:49.240Z,99.90
2022-11-23T20:44:15.869Z,99.90
2022-11-23T20:47:01.250Z,99.90
2022-11-23T20:49:30.149Z,99.90
2022-11-23T20:51:57.390Z,99.90
2022-11-23T20:54:23.999Z,99.90
2022-11-23T20:56:50.625Z,99.90
2022-11-23T20:59:17.321Z,99.90
2022-11-23T21:01:44.057Z,99.90
2022-11-23T21:04:10.925Z,99.90
2022-11-23T21:06:39.924Z,99.90
2022-11-23T21:09:07.763Z,99.90
2022-11-23T21:11:52.955Z,99.90
2022-11-23T21:14:21.561Z,99.90
2022-11-23T21:16:56.729Z,99.90
2022-11-23T21:19:34.738Z,99.90
2022-11-23T21:22:06.691Z,99.90
2022-11-23T21:24:35.327Z,99.90
2022-11-23T21:27:03.944Z,99.90
2022-11-23T21:29:31.181Z,99.90
2022-11-23T21:31:57.772Z,99.90
2022-11-23T21:34:26.021Z,99.90
2022-11-23T21:36:53.743Z,99.90
2022-11-23T21:39:21.111Z,99.90
2022-11-23T21:41:51.163Z,99.90
2022-11-23T21:44:18.232Z,99.90
2022-11-23T21:46:45.333Z,99.90
2022-11-23T21:49:12.876Z,99.90
2022-11-23T21:51:39.696Z,99.90
2022-11-23T21:54:10.091Z,99.90
2022-11-23T21:56:36.690Z,99.90
2022-11-23T21:59:03.311Z,99.90
2022-11-23T22:01:32.742Z,99.90
2022-11-23T22:04:17.300Z,99.90
2022-11-23T22:06:45.102Z,99.90
2022-11-23T22:09:12.567Z,99.90
2022-11-23T22:11:41.558Z,99.90
2022-11-23T22:14:13.685Z,99.90
2022-11-23T22:16:45.543Z,99.90
2022-11-23T22:19:13.651Z,99.90
2022-11-23T22:21:42.114Z,99.90
2022-11-23T22:24:19.349Z,99.90
2022-11-23T22:26:46.517Z,99.90
2022-11-23T22:29:13.750Z,99.90
2022-11-23T22:31:40.812Z,99.90
2022-11-23T22:34:14.065Z,99.90
2022-11-23T22:36:41.083Z,99.90
2022-11-23T22:39:08.125Z,99.90
2022-11-23T22:41:38.837Z,99.90
2022-11-23T22:44:08.423Z,99.90
2022-11-23T22:46:37.480Z,99.90
2022-11-23T22:49:04.418Z,99.90
2022-11-23T22:51:31.047Z,99.90
2022-11-23T22:53:59.491Z,99.90
2022-11-23T22:56:27.441Z,99.90
2022-11-23T22:58:54.221Z,99.90
2022-11-23T23:01:26.739Z,99.90
2022-11-23T23:03:55.486Z,99.90
2022-11-23T23:06:24.727Z,99.90
2022-11-23T23:08:56.762Z,99.90
2022-11-23T23:11:24.699Z,99.90
2022-11-23T23:13:51.764Z,99.90
2022-11-23T23:16:18.705Z,99.90
2022-11-23T23:18:45.599Z,99.90
2022-11-23T23:21:17.219Z,99.90
2022-11-23T23:23:45.983Z,99.90
2022-11-23T23:26:14.466Z,99.90
2022-11-23T23:28:41.308Z,99.90
2022-11-23T23:31:10.800Z,99.90
2022-11-23T23:33:37.657Z,99.90
2022-11-23T23:36:15.644Z,99.90
2022-11-23T23:38:42.884Z,99.90
2022-11-23T23:41:10.977Z,99.90
2022-11-23T23:43:37.877Z,99.90
2022-11-23T23:46:07.401Z,99.90
2022-11-23T23:48:36.151Z,99.90
2022-11-23T23:51:07.511Z,99.90
2022-11-23T23:53:35.161Z,99.90
2022-11-23T23:56:04.689Z,99.90
2022-11-23T23:58:31.652Z,99.90
